createdAt,value
2019-01-16T00:00:36.379Z,98343.62
2019-01-16T00:03:38.267Z,98340.81
2019-01-16T00:06:33.301Z,98335.77
2019-01-16T00:09:27.566Z,98335.96
2019-01-16T00:12:05.578Z,98332.30
2019-01-16T00:15:06.589Z,98334.44
2019-01-16T00:18:01.326Z,98331.39
2019-01-16T00:20:40.935Z,98327.51
2019-01-16T00:23:30.142Z,98327.55
2019-01-16T00:26:19.028Z,98324.71
2019-01-16T00:29:04.641Z,98324.19
2019-01-16T00:31:57.130Z,98321.95
2019-01-16T00:34:44.450Z,98318.23
2019-01-16T00:37:41.988Z,98314.11
2019-01-16T00:40:30.514Z,98310.89
2019-01-16T00:43:28.672Z,98305.84
2019-01-16T00:46:17.606Z,98304.94
2019-01-16T00:49:12.457Z,98300.59
2019-01-16T00:52:05.417Z,98296.34
2019-01-16T00:54:54.772Z,98291.95
2019-01-16T00:57:42.172Z,98286.91
2019-01-16T01:00:29.682Z,98291.57
2019-01-16T01:03:24.318Z,98278.56
2019-01-16T01:06:20.771Z,98285.59
2019-01-16T01:09:15.390Z,98286.25
2019-01-16T01:12:08.010Z,98279.73
2019-01-16T01:14:50.706Z,98279.92
2019-01-16T01:17:29.604Z,98282.75
2019-01-16T01:20:17.717Z,98283.50
2019-01-16T01:23:15.291Z,98280.73
2019-01-16T01:26:13.240Z,98284.77
2019-01-16T01:28:55.253Z,98283.73
2019-01-16T01:31:46.991Z,98278.17
2019-01-16T01:34:41.639Z,98280.45
2019-01-16T01:37:32.794Z,98276.83
2019-01-16T01:40:21.982Z,98276.07
2019-01-16T01:43:04.442Z,98277.04
2019-01-16T01:45:44.524Z,98278.77
2019-01-16T01:48:40.051Z,98284.31
2019-01-16T01:51:22.908Z,98285.06
2019-01-16T01:54:10.696Z,98277.51
2019-01-16T01:56:51.827Z,98277.68
2019-01-16T01:59:32.022Z,98280.41
2019-01-16T02:02:30.072Z,98281.84
2019-01-16T02:05:09.231Z,98279.81
2019-01-16T02:07:51.000Z,98278.75
2019-01-16T02:10:39.233Z,98274.97
2019-01-16T02:13:40.829Z,98267.80
2019-01-16T02:16:41.573Z,98263.20
2019-01-16T02:19:45.280Z,98265.54
2019-01-16T02:22:46.361Z,98262.98
2019-01-16T02:25:35.401Z,98259.40
2019-01-16T02:28:16.751Z,98260.59
2019-01-16T02:30:59.015Z,98253.86
2019-01-16T02:33:50.861Z,98256.52
2019-01-16T02:36:32.877Z,98247.84
2019-01-16T02:39:30.598Z,98245.52
2019-01-16T02:42:18.088Z,98243.67
2019-01-16T02:45:05.181Z,98234.34
2019-01-16T02:47:42.630Z,98230.80
2019-01-16T02:50:28.323Z,98234.50
2019-01-16T02:53:21.462Z,98236.27
2019-01-16T02:56:03.658Z,98239.30
2019-01-16T02:58:43.266Z,98233.72
2019-01-16T03:01:38.245Z,98226.17
2019-01-16T03:04:19.988Z,98221.05
2019-01-16T03:07:06.274Z,98221.64
2019-01-16T03:10:07.396Z,98207.09
2019-01-16T03:12:52.528Z,98201.83
2019-01-16T03:15:40.200Z,98206.51
2019-01-16T03:18:27.719Z,98194.09
2019-01-16T03:21:06.891Z,98193.16
2019-01-16T03:23:58.739Z,98189.45
2019-01-16T03:26:35.670Z,98187.75
2019-01-16T03:29:37.704Z,98191.05
2019-01-16T03:32:15.789Z,98191.58
2019-01-16T03:34:56.929Z,98181.78
2019-01-16T03:37:46.098Z,98182.33
2019-01-16T03:40:38.888Z,98178.62
2019-01-16T03:43:29.913Z,98177.66
2019-01-16T03:46:13.402Z,98177.14
2019-01-16T03:49:13.143Z,98162.95
2019-01-16T03:51:59.490Z,98161.11
2019-01-16T03:54:51.716Z,98161.85
2019-01-16T03:57:50.213Z,98155.41
2019-01-16T04:00:40.192Z,98157.18
2019-01-16T04:03:26.182Z,98153.73
2019-01-16T04:06:33.279Z,98148.45
2019-01-16T04:09:28.441Z,98144.41
2019-01-16T04:12:05.216Z,98143.66
2019-01-16T04:18:42.638Z,98131.83
2019-01-16T04:21:23.533Z,98137.45
2019-01-16T04:24:11.150Z,98126.05
2019-01-16T04:26:53.603Z,98127.98
2019-01-16T04:29:33.556Z,98132.63
2019-01-16T04:32:22.440Z,98130.92
2019-01-16T04:35:23.258Z,98124.08
2019-01-16T04:38:13.083Z,98111.98
2019-01-16T04:41:04.902Z,98115.26
2019-01-16T04:43:46.855Z,98117.73
2019-01-16T04:46:34.264Z,98110.92
2019-01-16T04:49:19.383Z,98107.95
2019-01-16T04:52:20.852Z,98111.59
2019-01-16T04:55:24.599Z,98107.70
2019-01-16T04:58:05.859Z,98107.67
2019-01-16T05:00:54.928Z,98102.17
2019-01-16T05:03:43.575Z,98101.11
2019-01-16T05:06:32.660Z,98100.67
2019-01-16T05:09:20.243Z,98099.34
2019-01-16T05:12:30.370Z,98100.44
2019-01-16T05:15:13.265Z,98094.94
2019-01-16T05:18:05.440Z,98096.59
2019-01-16T05:20:52.732Z,98088.62
2019-01-16T05:23:39.288Z,98090.47
2019-01-16T05:26:27.742Z,98089.80
2019-01-16T05:29:23.046Z,98080.02
2019-01-16T05:32:21.011Z,98074.83
2019-01-16T05:35:06.166Z,98070.08
2019-01-16T05:37:51.812Z,98061.84
2019-01-16T05:40:39.757Z,98063.55
2019-01-16T05:43:27.217Z,98058.02
2019-01-16T05:46:04.165Z,98049.56
2019-01-16T05:48:46.953Z,98050.21
2019-01-16T05:51:30.795Z,98047.86
2019-01-16T05:54:18.540Z,98050.27
2019-01-16T05:57:07.385Z,98046.12
2019-01-16T06:00:08.168Z,98049.84
2019-01-16T06:03:02.682Z,98057.72
2019-01-16T06:05:47.208Z,98057.19
2019-01-16T06:08:27.745Z,98064.58
2019-01-16T06:11:15.556Z,98057.00
2019-01-16T06:14:03.212Z,98054.32
2019-01-16T06:16:50.838Z,98055.86
2019-01-16T06:19:38.491Z,98055.64
2019-01-16T06:22:20.048Z,98058.61
2019-01-16T06:25:21.235Z,98046.98
2019-01-16T06:28:08.601Z,98056.59
2019-01-16T06:30:45.022Z,98051.32
2019-01-16T06:33:39.781Z,98054.29
2019-01-16T06:36:27.534Z,98046.06
2019-01-16T06:39:17.707Z,98044.55
2019-01-16T06:42:06.377Z,98043.67
2019-01-16T06:45:04.275Z,98042.15
2019-01-16T06:47:51.548Z,98041.02
2019-01-16T06:50:29.992Z,98032.94
2019-01-16T06:53:17.551Z,98040.20
2019-01-16T06:56:12.468Z,98038.75
2019-01-16T06:59:04.075Z,98041.58
2019-01-16T07:01:52.887Z,98038.88
2019-01-16T07:04:36.148Z,98039.59
2019-01-16T07:07:13.799Z,98037.89
2019-01-16T07:10:01.424Z,98032.55
2019-01-16T07:12:46.823Z,98028.01
2019-01-16T07:15:41.634Z,98025.83
2019-01-16T07:18:22.120Z,98019.78
2019-01-16T07:21:09.888Z,98016.92
2019-01-16T07:24:04.929Z,98000.66
2019-01-16T07:26:46.865Z,98006.59
2019-01-16T07:29:36.641Z,98011.27
2019-01-16T07:32:25.965Z,98016.62
2019-01-16T07:35:13.813Z,98018.79
2019-01-16T07:38:01.037Z,98017.97
2019-01-16T07:40:41.659Z,98012.09
2019-01-16T07:43:25.910Z,98012.78
2019-01-16T07:46:26.799Z,98002.94
2019-01-16T07:49:27.899Z,97997.44
2019-01-16T07:52:08.402Z,97993.55
2019-01-16T07:54:55.717Z,97998.81
2019-01-16T07:57:32.799Z,97991.95
2019-01-16T08:00:20.545Z,97995.38
2019-01-16T08:03:09.668Z,97990.58
2019-01-16T08:06:04.557Z,97979.81
2019-01-16T08:08:48.545Z,97977.27
2019-01-16T08:11:35.164Z,97981.02
2019-01-16T08:14:27.258Z,97976.86
2019-01-16T08:17:18.463Z,97980.94
2019-01-16T08:20:02.876Z,97988.70
2019-01-16T08:22:41.468Z,97982.43
2019-01-16T08:25:37.902Z,97981.86
2019-01-16T08:28:22.588Z,97987.19
2019-01-16T08:31:17.890Z,97986.14
2019-01-16T08:34:00.498Z,97982.22
2019-01-16T08:36:49.500Z,97978.00
2019-01-16T08:39:28.059Z,97978.52
2019-01-16T08:42:11.195Z,97978.36
2019-01-16T08:44:53.407Z,97977.25
2019-01-16T08:47:40.953Z,97978.44
2019-01-16T08:50:23.806Z,97973.44
2019-01-16T08:53:20.280Z,97976.28
2019-01-16T08:56:09.531Z,97970.21
2019-01-16T08:58:57.112Z,97973.13
2019-01-16T09:01:52.520Z,97972.15
2019-01-16T09:04:36.829Z,97965.84
2019-01-16T09:33:18.910Z,97951.62
2019-01-16T09:36:03.000Z,97946.73
2019-01-16T09:45:26.200Z,97939.77
2019-01-16T09:48:24.151Z,97936.06
2019-01-16T09:51:11.979Z,97930.20
2019-01-16T09:53:56.565Z,97927.22
2019-01-16T09:56:48.688Z,97916.98
2019-01-16T09:59:40.407Z,97924.39
2019-01-16T10:02:38.408Z,97912.64
2019-01-16T10:05:28.585Z,97909.62
2019-01-16T10:08:11.715Z,97904.02
2019-01-16T10:11:15.497Z,97899.54
2019-01-16T10:14:13.618Z,97901.84
2019-01-16T10:17:00.889Z,97891.25
2019-01-16T10:19:58.784Z,97884.09
2019-01-16T10:22:45.493Z,97882.47
2019-01-16T10:25:20.392Z,97883.91
2019-01-16T10:28:27.529Z,97875.59
2019-01-16T10:31:15.270Z,97867.09
2019-01-16T10:34:11.224Z,97862.42
2019-01-16T10:37:02.215Z,97854.00
2019-01-16T10:39:53.894Z,97856.28
2019-01-16T10:42:33.300Z,97850.12
2019-01-16T10:45:14.638Z,97850.84
2019-01-16T10:48:06.117Z,97847.28
2019-01-16T10:50:50.408Z,97840.98
2019-01-16T10:53:37.139Z,97845.09
2019-01-16T10:56:22.656Z,97842.78
2019-01-16T10:59:22.384Z,97831.42
2019-01-16T11:02:10.019Z,97830.99
2019-01-16T11:04:59.084Z,97824.81
2019-01-16T11:07:40.666Z,97821.34
2019-01-16T11:10:38.186Z,97817.55
2019-01-16T11:13:25.788Z,97821.31
2019-01-16T11:16:13.263Z,97815.61
2019-01-16T11:19:01.094Z,97817.16
2019-01-16T11:21:43.102Z,97805.84
2019-01-16T11:24:30.396Z,97790.08
2019-01-16T11:27:25.263Z,97788.17
2019-01-16T11:30:14.251Z,97773.20
2019-01-16T11:33:09.142Z,97773.04
2019-01-16T11:36:05.934Z,97763.42
2019-01-16T11:39:12.919Z,97764.22
2019-01-16T11:42:04.346Z,97766.36
2019-01-16T11:44:52.040Z,97756.27
2019-01-16T11:47:49.277Z,97747.07
2019-01-16T11:50:39.571Z,97741.17
2019-01-16T11:53:32.390Z,97737.34
2019-01-16T11:56:30.509Z,97737.16
2019-01-16T11:59:13.080Z,97737.50
2019-01-16T12:02:06.227Z,97725.71
2019-01-16T12:05:04.096Z,97722.84
2019-01-16T12:07:57.933Z,97718.67
2019-01-16T12:10:46.012Z,97708.88
2019-01-16T12:13:24.549Z,97713.28
2019-01-16T12:16:12.375Z,97704.66
2019-01-16T12:19:07.886Z,97700.23
2019-01-16T12:21:53.107Z,97695.83
2019-01-16T12:24:44.863Z,97687.20
2019-01-16T12:27:32.327Z,97680.00
2019-01-16T12:30:22.288Z,97677.42
2019-01-16T12:33:03.573Z,97666.55
2019-01-16T12:36:10.690Z,97656.13
2019-01-16T12:39:14.644Z,97652.33
2019-01-16T12:42:05.377Z,97645.61
2019-01-16T12:44:44.341Z,97636.97
2019-01-16T12:47:27.374Z,97630.09
2019-01-16T12:50:34.429Z,97632.09
2019-01-16T12:53:38.402Z,97628.36
2019-01-16T12:56:18.726Z,97629.20
2019-01-16T12:59:11.135Z,97619.17
2019-01-16T13:01:54.108Z,97615.16
2019-01-16T13:04:55.438Z,97609.11
2019-01-16T13:07:36.611Z,97606.41
2019-01-16T13:10:27.056Z,97603.77
2019-01-16T13:13:16.257Z,97602.22
2019-01-16T13:16:17.382Z,97599.25
2019-01-16T13:19:06.471Z,97599.90
2019-01-16T13:22:13.318Z,97597.36
2019-01-16T13:25:04.564Z,97591.51
2019-01-16T13:28:05.815Z,97587.75
2019-01-16T13:31:07.815Z,97587.48
2019-01-16T13:33:58.347Z,97584.05
2019-01-16T13:36:41.885Z,97586.07
2019-01-16T13:39:30.014Z,97579.49
2019-01-16T13:42:15.493Z,97572.86
2019-01-16T13:45:02.942Z,97573.81
2019-01-16T13:47:54.924Z,97566.05
2019-01-16T13:50:42.486Z,97554.48
2019-01-16T13:53:31.377Z,97555.16
2019-01-16T13:56:32.681Z,97554.20
2019-01-16T13:59:39.987Z,97555.02
2019-01-16T14:02:20.021Z,97548.14
2019-01-16T14:05:08.841Z,97552.65
2019-01-16T14:07:50.724Z,97545.36
2019-01-16T14:10:27.243Z,97542.05
2019-01-16T14:13:16.460Z,97541.97
2019-01-16T14:16:17.597Z,97536.72
2019-01-16T14:18:54.425Z,97538.57
2019-01-16T14:21:35.892Z,97526.66
2019-01-16T14:24:18.730Z,97521.02
2019-01-16T14:27:06.247Z,97519.92
2019-01-16T14:29:54.026Z,97513.97
2019-01-16T14:32:34.685Z,97516.01
2019-01-16T14:35:22.907Z,97508.23
2019-01-16T14:38:17.725Z,97511.19
2019-01-16T14:40:57.513Z,97510.73
2019-01-16T14:43:50.528Z,97502.48
2019-01-16T14:46:28.280Z,97493.53
2019-01-16T14:49:16.282Z,97489.16
2019-01-16T14:51:59.736Z,97488.95
2019-01-16T14:55:06.157Z,97484.79
2019-01-16T14:57:51.919Z,97482.53
2019-01-16T15:00:33.891Z,97481.80
2019-01-16T15:03:14.605Z,97480.89
2019-01-16T15:06:10.686Z,97470.25
2019-01-16T15:09:08.743Z,97472.01
2019-01-16T15:12:00.480Z,97474.84
2019-01-16T15:15:07.452Z,97480.41
2019-01-16T15:17:56.031Z,97471.85
2019-01-16T15:20:53.903Z,97471.49
2019-01-16T15:27:17.326Z,97475.39
2019-01-16T15:30:04.076Z,97470.70
2019-01-16T15:36:45.995Z,97469.82
2019-01-16T15:39:28.848Z,97461.17
2019-01-16T15:42:21.693Z,97455.91
2019-01-16T15:45:08.996Z,97452.21
2019-01-16T15:47:58.578Z,97457.43
2019-01-16T15:50:52.817Z,97446.61
2019-01-16T15:53:38.778Z,97444.75
2019-01-16T15:56:26.261Z,97446.06
2019-01-16T15:59:15.363Z,97439.77
2019-01-16T16:01:56.938Z,97436.81
2019-01-16T16:04:46.637Z,97437.75
2019-01-16T16:07:27.949Z,97435.07
2019-01-16T16:10:12.642Z,97425.78
2019-01-16T16:12:54.796Z,97419.32
2019-01-16T16:15:42.350Z,97424.99
2019-01-16T16:18:34.758Z,97418.37
2019-01-16T16:21:31.989Z,97416.77
2019-01-16T16:28:13.875Z,97417.42
2019-01-16T16:31:02.716Z,97415.88
2019-01-16T16:33:50.037Z,97410.99
2019-01-16T16:36:31.374Z,97413.97
2019-01-16T16:39:38.272Z,97413.34
2019-01-16T16:42:21.130Z,97416.61
2019-01-16T16:45:10.542Z,97407.48
2019-01-16T16:47:58.216Z,97415.81
2019-01-16T16:50:38.742Z,97407.92
2019-01-16T16:53:26.180Z,97408.28
2019-01-16T16:56:24.047Z,97400.73
2019-01-16T16:59:12.404Z,97398.17
2019-01-16T17:01:59.233Z,97391.89
2019-01-16T17:05:00.570Z,97396.13
2019-01-16T17:07:48.160Z,97393.09
2019-01-16T17:10:39.978Z,97385.87
2019-01-16T17:13:27.306Z,97387.14
2019-01-16T17:16:31.975Z,97382.38
2019-01-16T17:19:13.962Z,97383.66
2019-01-16T17:22:06.296Z,97377.66
2019-01-16T17:28:46.338Z,97382.43
2019-01-16T17:31:34.210Z,97382.52
2019-01-16T17:34:27.439Z,97379.66
2019-01-16T17:37:22.817Z,97384.86
2019-01-16T17:40:10.318Z,97378.77
2019-01-16T17:42:58.741Z,97371.67
2019-01-16T17:45:50.670Z,97371.02
2019-01-16T17:48:49.071Z,97368.42
2019-01-16T17:51:56.087Z,97363.06
2019-01-16T17:54:42.027Z,97360.06
2019-01-16T17:57:34.138Z,97363.02
2019-01-16T18:00:30.696Z,97355.68
2019-01-16T18:03:14.081Z,97354.98
2019-01-16T18:06:08.747Z,97357.13
2019-01-16T18:08:47.439Z,97351.86
2019-01-16T18:11:39.476Z,97351.39
2019-01-16T18:14:26.205Z,97342.95
2019-01-16T18:17:23.812Z,97347.16
2019-01-16T18:20:11.585Z,97345.57
2019-01-16T18:23:02.370Z,97345.09
2019-01-16T18:25:42.696Z,97343.36
2019-01-16T18:28:34.707Z,97339.23
2019-01-16T18:31:21.540Z,97346.61
2019-01-16T18:34:16.881Z,97332.84
2019-01-16T18:37:04.503Z,97337.21
2019-01-16T18:39:51.880Z,97329.69
2019-01-16T18:42:48.373Z,97325.95
2019-01-16T18:45:32.731Z,97328.75
2019-01-16T18:48:21.459Z,97329.70
2019-01-16T18:51:12.581Z,97331.59
2019-01-16T18:54:10.947Z,97328.94
2019-01-16T18:56:59.443Z,97332.71
2019-01-16T18:59:43.233Z,97338.32
2019-01-16T19:02:31.513Z,97333.79
2019-01-16T19:05:15.080Z,97328.38
2019-01-16T19:24:49.546Z,97321.61
2019-01-16T19:27:36.860Z,97324.53
2019-01-16T19:30:28.369Z,97309.17
2019-01-16T19:33:26.411Z,97313.34
2019-01-16T19:36:21.188Z,97312.49
2019-01-16T19:39:08.849Z,97318.47
2019-01-16T19:42:03.824Z,97318.22
2019-01-16T19:44:51.107Z,97320.47
2019-01-16T19:47:34.203Z,97315.77
2019-01-16T19:50:22.103Z,97313.38
2019-01-16T19:53:09.684Z,97319.66
2019-01-16T19:56:06.084Z,97310.87
2019-01-16T19:58:53.568Z,97309.09
2019-01-16T20:01:41.089Z,97307.07
2019-01-16T20:04:45.255Z,97304.62
2019-01-16T20:07:41.179Z,97306.78
2019-01-16T20:10:26.730Z,97296.89
2019-01-16T20:13:11.708Z,97310.43
2019-01-16T20:16:08.931Z,97307.12
2019-01-16T20:18:50.175Z,97305.51
2019-01-16T20:21:40.268Z,97299.17
2019-01-16T20:24:18.051Z,97305.85
2019-01-16T20:27:20.115Z,97307.50
2019-01-16T20:30:20.651Z,97306.66
2019-01-16T20:33:06.321Z,97300.09
2019-01-16T20:35:44.294Z,97302.41
2019-01-16T20:38:35.978Z,97296.02
2019-01-16T20:41:24.907Z,97295.16
2019-01-16T20:44:16.909Z,97293.98
2019-01-16T20:46:54.812Z,97292.63
2019-01-16T20:49:42.403Z,97292.54
2019-01-16T20:52:50.249Z,97292.59
2019-01-16T20:55:45.810Z,97285.53
2019-01-16T20:58:37.131Z,97283.60
2019-01-16T21:01:34.852Z,97279.84
2019-01-16T21:04:30.954Z,97276.55
2019-01-16T21:07:15.735Z,97277.27
2019-01-16T21:10:07.408Z,97276.86
2019-01-16T21:12:55.422Z,97280.62
2019-01-16T21:15:51.907Z,97275.56
2019-01-16T21:18:33.354Z,97270.94
2019-01-16T21:21:31.280Z,97261.22
2019-01-16T21:24:13.743Z,97263.48
2019-01-16T21:26:53.685Z,97270.53
2019-01-16T21:29:42.061Z,97269.17
2019-01-16T21:32:23.013Z,97271.05
2019-01-16T21:35:12.633Z,97263.89
2019-01-16T21:37:58.200Z,97263.78
2019-01-16T21:40:45.540Z,97261.08
2019-01-16T21:43:32.662Z,97260.92
2019-01-16T21:46:29.013Z,97267.81
2019-01-16T21:49:28.850Z,97258.79
2019-01-16T21:52:15.730Z,97257.69
2019-01-16T21:55:07.379Z,97254.92
2019-01-16T21:58:05.281Z,97255.58
2019-01-16T22:00:53.072Z,97259.73
2019-01-16T22:03:41.976Z,97256.05
2019-01-16T22:06:42.803Z,97263.61
2019-01-16T22:09:34.944Z,97263.59
2019-01-16T22:12:24.972Z,97259.50
2019-01-16T22:15:04.446Z,97254.51
2019-01-16T22:17:56.096Z,97248.81
2019-01-16T22:20:37.905Z,97243.62
2019-01-16T22:23:36.683Z,97253.28
2019-01-16T22:26:13.872Z,97246.32
2019-01-16T22:29:04.622Z,97247.33
2019-01-16T22:31:53.630Z,97251.52
2019-01-16T22:34:45.156Z,97245.77
2019-01-16T22:37:40.359Z,97246.91
2019-01-16T22:40:29.138Z,97250.00
2019-01-16T22:43:19.508Z,97243.77
2019-01-16T22:46:23.431Z,97243.14
2019-01-16T22:49:18.112Z,97246.30
2019-01-16T22:52:09.732Z,97241.91
2019-01-16T22:54:57.289Z,97240.63
2019-01-16T22:57:59.102Z,97244.39
2019-01-16T23:00:54.744Z,97240.77
2019-01-16T23:03:53.469Z,97241.10
2019-01-16T23:06:34.876Z,97237.50
2019-01-16T23:09:16.081Z,97230.32
2019-01-16T23:12:03.391Z,97230.89
2019-01-16T23:15:02.164Z,97227.78
2019-01-16T23:17:49.452Z,97232.48
2019-01-16T23:20:31.699Z,97225.59
2019-01-16T23:23:19.637Z,97229.09
2019-01-16T23:25:57.519Z,97221.55
2019-01-16T23:28:49.179Z,97226.55
2019-01-16T23:31:31.705Z,97220.75
2019-01-16T23:34:17.890Z,97217.94
2019-01-16T23:37:06.701Z,97216.85
2019-01-16T23:39:53.775Z,97214.48
2019-01-16T23:42:45.584Z,97214.66
2019-01-16T23:45:50.094Z,97215.93
2019-01-16T23:48:48.459Z,97220.94
2019-01-16T23:51:38.810Z,97216.55
2019-01-16T23:54:33.596Z,97215.44
2019-01-16T23:57:22.763Z,97218.41
